sensor_id;sensor_type;location;lat;lon;timestamp;pressure;altitude;pressure_sealevel;temperature;humidity
17855;BME280;9053;53.358;6.382;2023-09-19T00:00:47;100278.94;;;17.01;100.00
17855;BME280;9053;53.358;6.382;2023-09-19T00:03:18;100298.47;;;16.97;100.00
17855;BME280;9053;53.358;6.382;2023-09-19T00:05:50;100292.28;;;16.92;100.00
17855;BME280;9053;53.358;6.382;2023-09-19T00:08:19;100300.25;;;16.89;100.00
17855;BME280;9053;53.358;6.382;2023-09-19T00:10:51;100298.44;;;16.83;100.00
17855;BME280;9053;53.358;6.382;2023-09-19T00:13:24;100299.31;;;16.77;100.00
17855;BME280;9053;53.358;6.382;2023-09-19T00:15:59;100305.50;;;16.72;100.00
17855;BME280;9053;53.358;6.382;2023-09-19T00:18:32;100309.06;;;16.69;100.00
17855;BME280;9053;53.358;6.382;2023-09-19T00:21:03;100316.13;;;16.67;100.00
17855;BME280;9053;53.358;6.382;2023-09-19T00:23:34;100316.13;;;16.64;100.00
17855;BME280;9053;53.358;6.382;2023-09-19T00:26:04;100325.84;;;16.62;100.00
17855;BME280;9053;53.358;6.382;2023-09-19T00:28:37;100329.41;;;16.59;100.00
17855;BME280;9053;53.358;6.382;2023-09-19T00:31:08;100321.41;;;16.58;100.00
17855;BME280;9053;53.358;6.382;2023-09-19T00:33:41;100326.72;;;16.58;100.00
17855;BME280;9053;53.358;6.382;2023-09-19T00:36:15;100335.56;;;16.55;100.00
17855;BME280;9053;53.358;6.382;2023-09-19T00:38:45;100331.16;;;16.54;100.00
17855;BME280;9053;53.358;6.382;2023-09-19T00:41:18;100339.09;;;16.53;100.00
17855;BME280;9053;53.358;6.382;2023-09-19T00:43:51;100334.69;;;16.50;100.00
17855;BME280;9053;53.358;6.382;2023-09-19T00:46:25;100348.88;;;16.51;100.00
17855;BME280;9053;53.358;6.382;2023-09-19T00:49:01;100339.13;;;16.48;100.00
17855;BME280;9053;53.358;6.382;2023-09-19T00:51:31;100347.09;;;16.47;100.00
17855;BME280;9053;53.358;6.382;2023-09-19T00:54:03;100336.44;;;16.45;100.00
17855;BME280;9053;53.358;6.382;2023-09-19T00:56:45;100350.63;;;16.46;100.00
17855;BME280;9053;53.358;6.382;2023-09-19T00:59:19;100352.38;;;16.45;100.00
17855;BME280;9053;53.358;6.382;2023-09-19T01:01:50;100351.50;;;16.44;100.00
17855;BME280;9053;53.358;6.382;2023-09-19T01:04:27;100355.03;;;16.40;100.00
17855;BME280;9053;53.358;6.382;2023-09-19T01:06:58;100355.91;;;16.39;100.00
17855;BME280;9053;53.358;6.382;2023-09-19T01:09:38;100363.88;;;16.36;100.00
17855;BME280;9053;53.358;6.382;2023-09-19T01:12:09;100369.16;;;16.33;100.00
17855;BME280;9053;53.358;6.382;2023-09-19T01:14:55;100369.13;;;16.30;100.00
17855;BME280;9053;53.358;6.382;2023-09-19T01:17:46;100369.16;;;16.29;100.00
17855;BME280;9053;53.358;6.382;2023-09-19T01:20:36;100372.66;;;16.28;100.00
17855;BME280;9053;53.358;6.382;2023-09-19T01:23:22;100376.25;;;16.31;100.00
17855;BME280;9053;53.358;6.382;2023-09-19T01:26:18;100376.22;;;16.33;100.00
17855;BME280;9053;53.358;6.382;2023-09-19T01:28:53;100373.59;;;16.34;100.00
17855;BME280;9053;53.358;6.382;2023-09-19T01:31:33;100372.69;;;16.35;100.00
17855;BME280;9053;53.358;6.382;2023-09-19T01:34:10;100382.44;;;16.35;100.00
17855;BME280;9053;53.358;6.382;2023-09-19T01:36:47;100378.00;;;16.35;100.00
17855;BME280;9053;53.358;6.382;2023-09-19T01:39:19;100379.78;;;16.36;100.00
17855;BME280;9053;53.358;6.382;2023-09-19T01:42:01;100385.97;;;16.37;100.00
17855;BME280;9053;53.358;6.382;2023-09-19T01:44:55;100380.66;;;16.40;100.00
17855;BME280;9053;53.358;6.382;2023-09-19T01:47:33;100388.66;;;16.38;100.00
17855;BME280;9053;53.358;6.382;2023-09-19T01:50:13;100385.09;;;16.36;100.00
17855;BME280;9053;53.358;6.382;2023-09-19T01:52:59;100385.09;;;16.33;100.00
17855;BME280;9053;53.358;6.382;2023-09-19T01:55:36;100388.59;;;16.29;100.00
17855;BME280;9053;53.358;6.382;2023-09-19T01:58:21;100385.06;;;16.24;100.00
17855;BME280;9053;53.358;6.382;2023-09-19T02:01:01;100385.03;;;16.19;100.00
17855;BME280;9053;53.358;6.382;2023-09-19T02:03:41;100386.78;;;16.13;100.00
17855;BME280;9053;53.358;6.382;2023-09-19T02:06:14;100386.75;;;16.10;100.00
17855;BME280;9053;53.358;6.382;2023-09-19T02:08:46;100395.59;;;16.07;100.00
17855;BME280;9053;53.358;6.382;2023-09-19T02:11:16;100379.66;;;16.04;100.00
17855;BME280;9053;53.358;6.382;2023-09-19T02:13:57;100377.00;;;15.99;100.00
17855;BME280;9053;53.358;6.382;2023-09-19T02:16:34;100373.44;;;15.97;100.00
17855;BME280;9053;53.358;6.382;2023-09-19T02:19:07;100376.09;;;15.94;100.00
17855;BME280;9053;53.358;6.382;2023-09-19T02:21:37;100375.19;;;15.92;100.00
17855;BME280;9053;53.358;6.382;2023-09-19T02:24:07;100377.84;;;15.91;100.00
17855;BME280;9053;53.358;6.382;2023-09-19T02:26:41;100384.91;;;15.89;100.00
17855;BME280;9053;53.358;6.382;2023-09-19T02:29:11;100379.56;;;15.84;100.00
17855;BME280;9053;53.358;6.382;2023-09-19T02:31:43;100385.75;;;15.80;100.00
17855;BME280;9053;53.358;6.382;2023-09-19T02:34:18;100383.13;;;15.80;100.00
17855;BME280;9053;53.358;6.382;2023-09-19T02:36:53;100386.63;;;15.79;100.00
17855;BME280;9053;53.358;6.382;2023-09-19T02:39:29;100378.69;;;15.81;100.00
17855;BME280;9053;53.358;6.382;2023-09-19T02:41:59;100384.00;;;15.81;100.00
17855;BME280;9053;53.358;6.382;2023-09-19T02:44:29;100381.31;;;15.79;100.00
17855;BME280;9053;53.358;6.382;2023-09-19T02:46:59;100386.63;;;15.79;100.00
17855;BME280;9053;53.358;6.382;2023-09-19T02:49:32;100390.16;;;15.78;100.00
17855;BME280;9053;53.358;6.382;2023-09-19T02:52:03;100383.97;;;15.76;100.00
17855;BME280;9053;53.358;6.382;2023-09-19T02:54:34;100391.91;;;15.73;100.00
17855;BME280;9053;53.358;6.382;2023-09-19T02:57:04;100398.00;;;15.67;100.00
17855;BME280;9053;53.358;6.382;2023-09-19T02:59:34;100395.38;;;15.66;100.00
17855;BME280;9053;53.358;6.382;2023-09-19T03:02:04;100405.94;;;15.64;100.00
17855;BME280;9053;53.358;6.382;2023-09-19T03:04:46;100409.47;;;15.62;100.00
17855;BME280;9053;53.358;6.382;2023-09-19T03:07:18;100410.34;;;15.62;100.00
17855;BME280;9053;53.358;6.382;2023-09-19T03:12:28;100400.66;;;15.63;100.00
17855;BME280;9053;53.358;6.382;2023-09-19T03:15:01;100402.38;;;15.57;100.00
17855;BME280;9053;53.358;6.382;2023-09-19T03:17:34;100397.09;;;15.57;100.00
17855;BME280;9053;53.358;6.382;2023-09-19T03:20:08;100389.97;;;15.53;100.00
17855;BME280;9053;53.358;6.382;2023-09-19T03:22:41;100403.22;;;15.50;100.00
17855;BME280;9053;53.358;6.382;2023-09-19T03:25:17;100415.53;;;15.47;100.00
17855;BME280;9053;53.358;6.382;2023-09-19T03:27:50;100409.38;;;15.45;100.00
17855;BME280;9053;53.358;6.382;2023-09-19T03:30:20;100418.19;;;15.44;100.00
17855;BME280;9053;53.358;6.382;2023-09-19T03:32:50;100420.84;;;15.42;100.00
17855;BME280;9053;53.358;6.382;2023-09-19T03:35:22;100414.63;;;15.40;100.00
17855;BME280;9053;53.358;6.382;2023-09-19T03:37:52;100421.72;;;15.43;100.00
17855;BME280;9053;53.358;6.382;2023-09-19T03:40:30;100424.38;;;15.46;100.00
17855;BME280;9053;53.358;6.382;2023-09-19T03:43:03;100407.63;;;15.48;100.00
17855;BME280;9053;53.358;6.382;2023-09-19T03:45:36;100397.91;;;15.50;100.00
17855;BME280;9053;53.358;6.382;2023-09-19T03:48:08;100411.16;;;15.50;100.00
17855;BME280;9053;53.358;6.382;2023-09-19T03:50:41;100420.88;;;15.51;100.00
17855;BME280;9053;53.358;6.382;2023-09-19T03:53:11;100413.81;;;15.50;100.00
17855;BME280;9053;53.358;6.382;2023-09-19T03:55:40;100421.78;;;15.50;100.00
17855;BME280;9053;53.358;6.382;2023-09-19T04:00:58;100416.47;;;15.50;100.00
17855;BME280;9053;53.358;6.382;2023-09-19T04:03:29;100412.94;;;15.51;100.00
17855;BME280;9053;53.358;6.382;2023-09-19T04:06:09;100412.94;;;15.51;100.00
17855;BME280;9053;53.358;6.382;2023-09-19T04:08:41;100417.38;;;15.54;100.00
17855;BME280;9053;53.358;6.382;2023-09-19T04:11:14;100425.34;;;15.55;100.00
17855;BME280;9053;53.358;6.382;2023-09-19T04:13:48;100429.75;;;15.55;100.00
17855;BME280;9053;53.358;6.382;2023-09-19T04:16:18;100434.16;;;15.54;100.00
17855;BME280;9053;53.358;6.382;2023-09-19T04:18:50;100428.84;;;15.54;100.00
17855;BME280;9053;53.358;6.382;2023-09-19T04:21:28;100416.47;;;15.53;100.00
17855;BME280;9053;53.358;6.382;2023-09-19T04:23:58;100433.28;;;15.52;100.00
17855;BME280;9053;53.358;6.382;2023-09-19T04:26:44;100443.88;;;15.52;100.00
17855;BME280;9053;53.358;6.382;2023-09-19T04:29:15;100442.09;;;15.51;100.00
17855;BME280;9053;53.358;6.382;2023-09-19T04:31:52;100436.81;;;15.53;100.00
17855;BME280;9053;53.358;6.382;2023-09-19T04:34:24;100452.72;;;15.53;100.00
17855;BME280;9053;53.358;6.382;2023-09-19T04:37:02;100443.00;;;15.53;100.00
17855;BME280;9053;53.358;6.382;2023-09-19T04:39:33;100446.53;;;15.55;100.00
17855;BME280;9053;53.358;6.382;2023-09-19T04:42:07;100437.69;;;15.56;100.00
17855;BME280;9053;53.358;6.382;2023-09-19T04:44:41;100437.72;;;15.59;100.00
17855;BME280;9053;53.358;6.382;2023-09-19T04:47:11;100445.66;;;15.59;100.00
17855;BME280;9053;53.358;6.382;2023-09-19T04:49:43;100442.13;;;15.59;100.00
17855;BME280;9053;53.358;6.382;2023-09-19T04:52:16;100450.09;;;15.59;100.00
17855;BME280;9053;53.358;6.382;2023-09-19T04:54:47;100441.28;;;15.62;100.00
17855;BME280;9053;53.358;6.382;2023-09-19T04:57:20;100449.22;;;15.62;100.00
17855;BME280;9053;53.358;6.382;2023-09-19T04:59:55;100441.28;;;15.62;100.00
17855;BME280;9053;53.358;6.382;2023-09-19T05:02:25;100450.13;;;15.64;100.00
17855;BME280;9053;53.358;6.382;2023-09-19T05:04:58;100456.31;;;15.63;100.00
17855;BME280;9053;53.358;6.382;2023-09-19T05:07:34;100449.22;;;15.62;100.00
17855;BME280;9053;53.358;6.382;2023-09-19T05:10:09;100453.66;;;15.63;100.00
17855;BME280;9053;53.358;6.382;2023-09-19T05:12:39;100463.34;;;15.62;100.00
17855;BME280;9053;53.358;6.382;2023-09-19T05:15:12;100458.06;;;15.64;100.00
17855;BME280;9053;53.358;6.382;2023-09-19T05:17:48;100462.50;;;15.65;100.00
17855;BME280;9053;53.358;6.382;2023-09-19T05:20:24;100460.75;;;15.67;100.00
17855;BME280;9053;53.358;6.382;2023-09-19T05:23:10;100458.13;;;15.68;100.00
17855;BME280;9053;53.358;6.382;2023-09-19T05:25:51;100453.75;;;15.70;100.00
17855;BME280;9053;53.358;6.382;2023-09-19T05:28:24;100457.28;;;15.71;100.00
17855;BME280;9053;53.358;6.382;2023-09-19T05:30:54;100457.31;;;15.72;100.00
17855;BME280;9053;53.358;6.382;2023-09-19T05:33:24;100455.53;;;15.73;100.00
17855;BME280;9053;53.358;6.382;2023-09-19T05:35:58;100459.09;;;15.75;100.00
17855;BME280;9053;53.358;6.382;2023-09-19T05:38:32;100455.53;;;15.73;100.00
17855;BME280;9053;53.358;6.382;2023-09-19T05:41:05;100461.75;;;15.75;100.00
17855;BME280;9053;53.358;6.382;2023-09-19T05:43:35;100459.97;;;15.75;100.00
17855;BME280;9053;53.358;6.382;2023-09-19T05:46:06;100452.00;;;15.77;100.00
17855;BME280;9053;53.358;6.382;2023-09-19T05:48:36;100444.97;;;15.77;100.00
17855;BME280;9053;53.358;6.382;2023-09-19T05:51:09;100452.03;;;15.78;100.00
17855;BME280;9053;53.358;6.382;2023-09-19T05:53:42;100447.59;;;15.79;100.00
17855;BME280;9053;53.358;6.382;2023-09-19T05:56:15;100453.81;;;15.81;100.00
17855;BME280;9053;53.358;6.382;2023-09-19T05:58:45;100457.34;;;15.80;100.00
17855;BME280;9053;53.358;6.382;2023-09-19T06:01:18;100473.25;;;15.80;100.00
17855;BME280;9053;53.358;6.382;2023-09-19T06:03:53;100483.84;;;15.82;100.00
17855;BME280;9053;53.358;6.382;2023-09-19T06:06:25;100490.06;;;15.84;100.00
17855;BME280;9053;53.358;6.382;2023-09-19T06:08:58;100494.50;;;15.86;100.00
17855;BME280;9053;53.358;6.382;2023-09-19T06:11:27;100491.81;;;15.85;100.00
17855;BME280;9053;53.358;6.382;2023-09-19T06:13:59;100489.22;;;15.88;100.00
17855;BME280;9053;53.358;6.382;2023-09-19T06:16:32;100498.03;;;15.87;100.00
17855;BME280;9053;53.358;6.382;2023-09-19T06:19:10;100489.16;;;15.85;100.00
17855;BME280;9053;53.358;6.382;2023-09-19T06:21:44;100496.25;;;15.87;99.91
17855;BME280;9053;53.358;6.382;2023-09-19T06:24:27;100494.53;;;15.88;99.93
17855;BME280;9053;53.358;6.382;2023-09-19T06:26:57;100495.41;;;15.91;99.78
17855;BME280;9053;53.358;6.382;2023-09-19T06:29:29;100490.13;;;15.91;99.74
17855;BME280;9053;53.358;6.382;2023-09-19T06:32:02;100500.72;;;15.94;99.73
17855;BME280;9053;53.358;6.382;2023-09-19T06:34:42;100503.41;;;15.97;99.74
17855;BME280;9053;53.358;6.382;2023-09-19T06:37:13;100494.56;;;16.00;99.49
17855;BME280;9053;53.358;6.382;2023-09-19T06:39:45;100498.13;;;16.00;99.14
17855;BME280;9053;53.358;6.382;2023-09-19T06:42:17;100497.28;;;16.03;99.24
17855;BME280;9053;53.358;6.382;2023-09-19T06:44:49;100495.53;;;16.05;99.13
17855;BME280;9053;53.358;6.382;2023-09-19T06:47:29;100497.31;;;16.08;98.93
17855;BME280;9053;53.358;6.382;2023-09-19T06:50:02;100494.66;;;16.08;98.91
17855;BME280;9053;53.358;6.382;2023-09-19T06:52:41;100499.09;;;16.10;98.93
17855;BME280;9053;53.358;6.382;2023-09-19T06:55:15;100494.66;;;16.14;98.89
17855;BME280;9053;53.358;6.382;2023-09-19T06:57:47;100499.97;;;16.17;98.87
17855;BME280;9053;53.358;6.382;2023-09-19T07:00:19;100496.47;;;16.21;98.96
17855;BME280;9053;53.358;6.382;2023-09-19T07:02:59;100490.31;;;16.23;98.88
17855;BME280;9053;53.358;6.382;2023-09-19T07:05:35;100489.44;;;16.29;98.74
17855;BME280;9053;53.358;6.382;2023-09-19T07:08:15;100492.09;;;16.32;98.82
17855;BME280;9053;53.358;6.382;2023-09-19T07:10:51;100497.41;;;16.35;98.87
17855;BME280;9053;53.358;6.382;2023-09-19T07:13:26;100503.63;;;16.39;98.80
17855;BME280;9053;53.358;6.382;2023-09-19T07:16:03;100504.53;;;16.42;98.48
17855;BME280;9053;53.358;6.382;2023-09-19T07:18:33;100508.97;;;16.47;98.64
17855;BME280;9053;53.358;6.382;2023-09-19T07:21:04;100509.00;;;16.50;98.55
17855;BME280;9053;53.358;6.382;2023-09-19T07:23:42;100506.34;;;16.53;98.38
17855;BME280;9053;53.358;6.382;2023-09-19T07:26:16;100513.44;;;16.55;98.45
17855;BME280;9053;53.358;6.382;2023-09-19T07:28:46;100507.25;;;16.59;98.37
17855;BME280;9053;53.358;6.382;2023-09-19T07:31:17;100500.19;;;16.64;98.26
17855;BME280;9053;53.358;6.382;2023-09-19T07:33:56;100507.28;;;16.67;98.21
17855;BME280;9053;53.358;6.382;2023-09-19T07:36:26;100502.00;;;16.73;98.02
17855;BME280;9053;53.358;6.382;2023-09-19T07:39:01;100508.22;;;16.77;97.81
17855;BME280;9053;53.358;6.382;2023-09-19T07:41:50;100509.16;;;16.83;97.56
17855;BME280;9053;53.358;6.382;2023-09-19T07:44:26;100500.31;;;16.87;97.30
17855;BME280;9053;53.358;6.382;2023-09-19T07:46:56;100509.16;;;16.93;97.35
17855;BME280;9053;53.358;6.382;2023-09-19T07:52:17;100510.06;;;17.01;97.01
17855;BME280;9053;53.358;6.382;2023-09-19T07:54:52;100507.44;;;17.04;96.78
17855;BME280;9053;53.358;6.382;2023-09-19T07:57:29;100494.16;;;17.08;96.52
17855;BME280;9053;53.358;6.382;2023-09-19T08:00:05;100502.13;;;17.10;96.38
17855;BME280;9053;53.358;6.382;2023-09-19T08:02:39;100501.25;;;17.13;96.19
17855;BME280;9053;53.358;6.382;2023-09-19T08:05:24;100502.13;;;17.10;95.86
17855;BME280;9053;53.358;6.382;2023-09-19T08:07:54;100506.56;;;17.17;95.71
17855;BME280;9053;53.358;6.382;2023-09-19T08:10:31;100500.38;;;17.23;95.58
17855;BME280;9053;53.358;6.382;2023-09-19T08:13:07;100501.28;;;17.37;95.50
17855;BME280;9053;53.358;6.382;2023-09-19T08:15:45;100501.28;;;17.42;94.98
17855;BME280;9053;53.358;6.382;2023-09-19T08:18:15;100508.34;;;17.50;94.64
17855;BME280;9053;53.358;6.382;2023-09-19T08:20:49;100511.91;;;17.57;94.22
17855;BME280;9053;53.358;6.382;2023-09-19T08:23:21;100504.81;;;17.58;93.80
17855;BME280;9053;53.358;6.382;2023-09-19T08:25:56;100510.13;;;17.70;93.50
17855;BME280;9053;53.358;6.382;2023-09-19T08:28:35;100517.25;;;17.82;93.30
17855;BME280;9053;53.358;6.382;2023-09-19T08:31:08;100512.78;;;17.96;92.83
17855;BME280;9053;53.358;6.382;2023-09-19T08:33:41;100502.16;;;18.02;92.21
17855;BME280;9053;53.358;6.382;2023-09-19T08:36:20;100508.34;;;18.12;91.75
17855;BME280;9053;53.358;6.382;2023-09-19T08:39:03;100504.72;;;18.27;91.49
17855;BME280;9053;53.358;6.382;2023-09-19T08:41:48;100505.56;;;18.41;91.11
17855;BME280;9053;53.358;6.382;2023-09-19T08:44:22;100499.31;;;18.53;90.95
17855;BME280;9053;53.358;6.382;2023-09-19T08:46:56;100497.50;;;18.63;90.50
17855;BME280;9053;53.358;6.382;2023-09-19T08:49:47;100501.91;;;18.76;90.01
17855;BME280;9053;53.358;6.382;2023-09-19T08:52:25;100500.06;;;18.90;90.10
17855;BME280;9053;53.358;6.382;2023-09-19T09:34:26;100503.53;;;19.01;88.99
17855;BME280;9053;53.358;6.382;2023-09-19T09:43:50;100499.06;;;19.02;87.54
17855;BME280;9053;53.358;6.382;2023-09-19T09:46:24;100499.09;;;19.03;87.03
17855;BME280;9053;53.358;6.382;2023-09-19T09:49:10;100483.09;;;19.05;86.99
17855;BME280;9053;53.358;6.382;2023-09-19T09:52:10;100491.97;;;19.06;86.73
17855;BME280;9053;53.358;6.382;2023-09-19T09:54:58;100485.75;;;19.03;86.36
17855;BME280;9053;53.358;6.382;2023-09-19T09:57:34;100485.78;;;19.00;86.08
17855;BME280;9053;53.358;6.382;2023-09-19T10:00:16;100488.44;;;18.99;85.87
17855;BME280;9053;53.358;6.382;2023-09-19T10:02:53;100479.56;;;19.03;85.63
17855;BME280;9053;53.358;6.382;2023-09-19T10:05:25;100483.97;;;19.06;85.57
17855;BME280;9053;53.358;6.382;2023-09-19T10:08:13;100481.28;;;19.10;85.38
17855;BME280;9053;53.358;6.382;2023-09-19T10:10:46;100475.00;;;19.16;85.62
17855;BME280;9053;53.358;6.382;2023-09-19T10:13:38;100460.75;;;19.20;85.63
17855;BME280;9053;53.358;6.382;2023-09-19T10:16:15;100467.00;;;19.19;85.75
17855;BME280;9053;53.358;6.382;2023-09-19T10:18:51;100474.03;;;19.24;85.65
17855;BME280;9053;53.358;6.382;2023-09-19T10:21:25;100475.81;;;19.27;85.41
17855;BME280;9053;53.358;6.382;2023-09-19T10:23:58;100466.91;;;19.31;86.31
17855;BME280;9053;53.358;6.382;2023-09-19T10:26:34;100464.19;;;19.34;87.47
17855;BME280;9053;53.358;6.382;2023-09-19T10:29:06;100467.75;;;19.36;88.46
17855;BME280;9053;53.358;6.382;2023-09-19T10:31:42;100457.97;;;19.38;89.09
17855;BME280;9053;53.358;6.382;2023-09-19T10:34:15;100454.38;;;19.41;89.82
17855;BME280;9053;53.358;6.382;2023-09-19T10:36:45;100444.59;;;19.43;90.34
17855;BME280;9053;53.358;6.382;2023-09-19T10:39:16;100437.44;;;19.46;90.82
17855;BME280;9053;53.358;6.382;2023-09-19T10:41:51;100429.44;;;19.46;91.09
17855;BME280;9053;53.358;6.382;2023-09-19T10:44:26;100440.97;;;19.47;91.09
17855;BME280;9053;53.358;6.382;2023-09-19T10:46:59;100428.53;;;19.49;91.32
17855;BME280;9053;53.358;6.382;2023-09-19T10:49:30;100430.28;;;19.52;91.28
17855;BME280;9053;53.358;6.382;2023-09-19T10:52:02;100426.69;;;19.54;91.28
17855;BME280;9053;53.358;6.382;2023-09-19T10:54:45;100429.34;;;19.56;91.11
17855;BME280;9053;53.358;6.382;2023-09-19T10:57:20;100425.78;;;19.58;91.25
17855;BME280;9053;53.358;6.382;2023-09-19T11:00:11;100422.19;;;19.61;91.15
17855;BME280;9053;53.358;6.382;2023-09-19T11:03:19;100420.38;;;19.64;91.07
17855;BME280;9053;53.358;6.382;2023-09-19T11:06:04;100407.03;;;19.67;90.93
17855;BME280;9053;53.358;6.382;2023-09-19T11:08:52;100399.94;;;19.68;90.55
17855;BME280;9053;53.358;6.382;2023-09-19T11:11:50;100408.81;;;19.67;90.42
17855;BME280;9053;53.358;6.382;2023-09-19T11:14:30;100407.03;;;19.67;90.50
17855;BME280;9053;53.358;6.382;2023-09-19T11:20:23;100408.03;;;19.54;90.48
17855;BME280;9053;53.358;6.382;2023-09-19T11:23:18;100407.19;;;19.51;90.72
17855;BME280;9053;53.358;6.382;2023-09-19T11:25:50;100405.41;;;19.50;90.94
17855;BME280;9053;53.358;6.382;2023-09-19T11:28:34;100405.44;;;19.46;91.34
17855;BME280;9053;53.358;6.382;2023-09-19T11:34:39;100411.59;;;19.53;91.99
17855;BME280;9053;53.358;6.382;2023-09-19T11:40:13;100393.81;;;19.54;92.16
17855;BME280;9053;53.358;6.382;2023-09-19T11:42:53;100387.63;;;19.49;92.27
17855;BME280;9053;53.358;6.382;2023-09-19T11:48:24;100381.47;;;19.43;92.29
17855;BME280;9053;53.358;6.382;2023-09-19T11:50:58;100378.81;;;19.43;92.45
17855;BME280;9053;53.358;6.382;2023-09-19T11:53:38;100373.38;;;19.50;92.83
17855;BME280;9053;53.358;6.382;2023-09-19T11:56:23;100368.03;;;19.53;92.81
17855;BME280;9053;53.358;6.382;2023-09-19T11:59:11;100376.03;;;19.54;92.56
17855;BME280;9053;53.358;6.382;2023-09-19T12:01:56;100371.56;;;19.55;92.45
17855;BME280;9053;53.358;6.382;2023-09-19T12:04:37;100368.94;;;19.50;92.42
17855;BME280;9053;53.358;6.382;2023-09-19T12:07:09;100385.84;;;19.48;92.35
17855;BME280;9053;53.358;6.382;2023-09-19T12:09:44;100381.44;;;19.45;92.59
17855;BME280;9053;53.358;6.382;2023-09-19T12:12:25;100379.75;;;19.38;92.63
17855;BME280;9053;53.358;6.382;2023-09-19T12:14:59;100379.78;;;19.33;92.81
17855;BME280;9053;53.358;6.382;2023-09-19T12:17:38;100370.97;;;19.28;92.67
17855;BME280;9053;53.358;6.382;2023-09-19T12:20:10;100370.13;;;19.21;92.96
17855;BME280;9053;53.358;6.382;2023-09-19T12:22:43;100390.59;;;19.15;93.18
17855;BME280;9053;53.358;6.382;2023-09-19T12:25:16;100401.38;;;19.02;93.60
17855;BME280;9053;53.358;6.382;2023-09-19T12:27:52;100392.63;;;18.84;94.46
17855;BME280;9053;53.358;6.382;2023-09-19T12:30:27;100406.03;;;18.70;95.75
17855;BME280;9053;53.358;6.382;2023-09-19T12:33:15;100390.97;;;18.59;97.25
17855;BME280;9053;53.358;6.382;2023-09-19T12:35:51;100382.13;;;18.56;98.44
17855;BME280;9053;53.358;6.382;2023-09-19T12:38:31;100380.34;;;18.58;99.95
17855;BME280;9053;53.358;6.382;2023-09-19T12:41:04;100367.00;;;18.63;100.00
17855;BME280;9053;53.358;6.382;2023-09-19T12:43:41;100353.63;;;18.69;100.00
17855;BME280;9053;53.358;6.382;2023-09-19T12:46:13;100335.84;;;18.74;100.00
17855;BME280;9053;53.358;6.382;2023-09-19T12:51:55;100328.69;;;18.85;100.00
17855;BME280;9053;53.358;6.382;2023-09-19T12:54:38;100328.66;;;18.88;100.00
17855;BME280;9053;53.358;6.382;2023-09-19T12:57:25;100328.59;;;18.94;100.00
17855;BME280;9053;53.358;6.382;2023-09-19T13:00:00;100333.00;;;18.98;100.00
17855;BME280;9053;53.358;6.382;2023-09-19T13:02:32;100334.78;;;19.01;100.00
17855;BME280;9053;53.358;6.382;2023-09-19T13:48:45;100296.69;;;18.88;100.00
17855;BME280;9053;53.358;6.382;2023-09-19T13:51:17;100301.16;;;18.86;100.00
17855;BME280;9053;53.358;6.382;2023-09-19T13:53:59;100305.63;;;18.83;100.00
17855;BME280;9053;53.358;6.382;2023-09-19T13:56:40;100299.38;;;18.85;100.00
17855;BME280;9053;53.358;6.382;2023-09-19T13:59:15;100286.00;;;18.90;100.00
17855;BME280;9053;53.358;6.382;2023-09-19T14:01:46;100305.53;;;18.93;100.00
17855;BME280;9053;53.358;6.382;2023-09-19T14:14:35;100299.91;;;19.24;100.00
17855;BME280;9053;53.358;6.382;2023-09-19T14:17:40;100290.97;;;19.25;100.00
17855;BME280;9053;53.358;6.382;2023-09-19T14:23:50;100282.00;;;19.35;100.00
17855;BME280;9053;53.358;6.382;2023-09-19T14:26:24;100305.13;;;19.32;100.00
17855;BME280;9053;53.358;6.382;2023-09-19T14:28:57;100311.38;;;19.29;100.00
17855;BME280;9053;53.358;6.382;2023-09-19T14:31:30;100323.00;;;19.23;100.00
17855;BME280;9053;53.358;6.382;2023-09-19T14:34:00;100339.91;;;19.21;100.00
17855;BME280;9053;53.358;6.382;2023-09-19T14:36:36;100325.78;;;19.11;100.00
17855;BME280;9053;53.358;6.382;2023-09-19T14:39:09;100325.81;;;19.07;100.00
17855;BME280;9053;53.358;6.382;2023-09-19T14:41:41;100322.31;;;19.01;100.00
17855;BME280;9053;53.358;6.382;2023-09-19T14:44:16;100317.91;;;18.97;100.00
17855;BME280;9053;53.358;6.382;2023-09-19T14:46:57;100316.19;;;18.92;100.00
17855;BME280;9053;53.358;6.382;2023-09-19T14:49:27;100314.44;;;18.89;100.00
17855;BME280;9053;53.358;6.382;2023-09-19T14:51:58;100300.28;;;18.86;100.00
17855;BME280;9053;53.358;6.382;2023-09-19T14:54:33;100313.56;;;18.90;100.00
17855;BME280;9053;53.358;6.382;2023-09-19T14:57:13;100309.97;;;18.91;100.00
17855;BME280;9053;53.358;6.382;2023-09-19T14:59:46;100309.09;;;18.89;100.00
17855;BME280;9053;53.358;6.382;2023-09-19T15:02:22;100310.91;;;18.86;100.00
17855;BME280;9053;53.358;6.382;2023-09-19T15:04:55;100318.91;;;18.84;100.00
17855;BME280;9053;53.358;6.382;2023-09-19T15:07:30;100319.81;;;18.81;100.00
17855;BME280;9053;53.358;6.382;2023-09-19T15:10:09;100327.84;;;18.77;100.00
17855;BME280;9053;53.358;6.382;2023-09-19T15:12:40;100322.56;;;18.71;100.00
17855;BME280;9053;53.358;6.382;2023-09-19T15:15:18;100322.59;;;18.68;100.00
17855;BME280;9053;53.358;6.382;2023-09-19T15:17:51;100327.94;;;18.63;100.00
17855;BME280;9053;53.358;6.382;2023-09-19T15:20:21;100317.31;;;18.60;100.00
17855;BME280;9053;53.358;6.382;2023-09-19T15:22:56;100312.00;;;18.57;100.00
17855;BME280;9053;53.358;6.382;2023-09-19T15:25:27;100323.53;;;18.54;100.00
17855;BME280;9053;53.358;6.382;2023-09-19T15:28:04;100324.44;;;18.52;100.00
17855;BME280;9053;53.358;6.382;2023-09-19T15:30:59;100332.44;;;18.52;100.00
17855;BME280;9053;53.358;6.382;2023-09-19T15:33:32;100329.81;;;18.49;100.00
17855;BME280;9053;53.358;6.382;2023-09-19T15:36:03;100329.84;;;18.47;100.00
17855;BME280;9053;53.358;6.382;2023-09-19T15:38:56;100340.47;;;18.47;100.00
17855;BME280;9053;53.358;6.382;2023-09-19T15:41:28;100330.69;;;18.51;100.00
17855;BME280;9053;53.358;6.382;2023-09-19T15:43:58;100326.25;;;18.53;100.00